Time;durP1;ratioP1;P1;durP2;ratioP2;P2;SDS_P1;SDS_P2;PMS_P1;PMS_P2;Temp;Humidity;BMP_temperature;BMP_pressure;BME280_temperature;BME280_humidity;BME280_pressure;Samples;Min_cycle;Max_cycle;Signal;HPM_P1;HPM_P2
2023/01/30 00:01:00;;;;;;;18.08;10.95;;;2.30;1.00;;;;;;6356774;22;20215;-83
2023/01/30 00:03:28;;;;;;;18.17;10.75;;;2.30;1.00;;;;;;6354355;22;20962;-83
2023/01/30 00:05:55;;;;;;;18.85;11.75;;;2.30;1.00;;;;;;6353357;22;20245;-79
2023/01/30 00:08:23;;;;;;;17.98;10.65;;;2.40;1.00;;;;;;6356652;22;20211;-84
2023/01/30 00:10:53;;;;;;;19.73;10.93;;;2.40;1.00;;;;;;6358409;22;20206;-84
2023/01/30 00:13:22;;;;;;;20.05;10.68;;;2.40;1.00;;;;;;6352712;22;20603;-82
2023/01/30 00:15:56;;;;;;;18.83;11.80;;;2.40;1.00;;;;;;6356179;22;20199;-83
2023/01/30 00:18:23;;;;;;;17.45;10.95;;;2.40;1.00;;;;;;6353088;22;20260;-82
2023/01/30 00:20:57;;;;;;;18.60;11.40;;;2.40;1.00;;;;;;6353726;22;20199;-81
2023/01/30 00:23:25;;;;;;;18.90;10.73;;;2.40;1.00;;;;;;6352860;22;20207;-79
2023/01/30 00:25:55;;;;;;;18.52;11.27;;;2.40;1.00;;;;;;6348092;22;20195;-81
2023/01/30 00:28:23;;;;;;;18.38;11.15;;;2.40;1.00;;;;;;6314394;22;20211;-81
2023/01/30 00:30:57;;;;;;;18.58;11.73;;;2.40;1.00;;;;;;6356726;22;20214;-83
2023/01/30 00:33:25;;;;;;;18.90;10.93;;;2.40;1.00;;;;;;6350909;22;20214;-81
2023/01/30 00:35:57;;;;;;;19.83;12.38;;;2.40;1.00;;;;;;6356030;22;20292;-81
2023/01/30 00:38:25;;;;;;;20.80;12.38;;;2.40;1.00;;;;;;6352956;22;20210;-78
2023/01/30 00:40:54;;;;;;;21.00;11.85;;;2.40;1.00;;;;;;6355462;22;20297;-77
2023/01/30 00:49:15;;;;;;;20.63;12.07;;;2.30;1.00;;;;;;6312277;22;20215;-82
2023/01/30 00:51:45;;;;;;;21.08;13.27;;;2.30;1.00;;;;;;6355813;22;20249;-80
2023/01/30 00:54:14;;;;;;;21.27;13.20;;;2.20;1.00;;;;;;6347620;22;20215;-78
2023/01/30 00:56:43;;;;;;;20.77;12.02;;;2.20;1.00;;;;;;6343802;22;20674;-79
2023/01/30 00:59:16;;;;;;;22.95;13.43;;;2.10;1.00;;;;;;6300649;22;20238;-77
2023/01/30 01:01:45;;;;;;;22.05;13.55;;;2.20;1.00;;;;;;6347656;22;20218;-78
2023/01/30 01:04:12;;;;;;;20.88;12.15;;;2.20;1.00;;;;;;6346609;22;20675;-78
2023/01/30 01:06:41;;;;;;;24.23;14.50;;;2.10;1.00;;;;;;6348721;22;20245;-79
2023/01/30 01:09:09;;;;;;;20.33;12.65;;;2.10;1.00;;;;;;6344808;22;21013;-77
2023/01/30 01:11:39;;;;;;;21.55;12.95;;;2.10;1.00;;;;;;6345140;22;20237;-78
2023/01/30 01:14:10;;;;;;;19.80;12.93;;;2.10;1.00;;;;;;6344638;22;20230;-77
2023/01/30 01:16:38;;;;;;;24.80;14.95;;;2.10;1.00;;;;;;6348714;22;20242;-77
2023/01/30 01:19:05;;;;;;;19.65;12.50;;;2.00;1.00;;;;;;6345163;22;20781;-76
2023/01/30 01:21:33;;;;;;;22.45;13.40;;;2.00;1.00;;;;;;6321398;22;20222;-77
2023/01/30 01:24:02;;;;;;;23.10;13.15;;;2.10;1.00;;;;;;6346988;22;20206;-77
2023/01/30 01:26:38;;;;;;;22.85;13.60;;;2.10;1.00;;;;;;6347200;22;20214;-76
2023/01/30 01:29:07;;;;;;;24.10;13.98;;;2.10;1.00;;;;;;6347609;22;20210;-76
2023/01/30 01:31:35;;;;;;;23.25;13.50;;;2.10;1.00;;;;;;6347197;22;20211;-78
2023/01/30 01:34:03;;;;;;;22.63;13.90;;;2.10;1.00;;;;;;6348016;22;20211;-77
2023/01/30 01:36:30;;;;;;;21.77;14.15;;;2.10;1.00;;;;;;6344637;22;20234;-77
2023/01/30 01:38:57;;;;;;;22.30;13.75;;;2.10;1.00;;;;;;6348333;22;20265;-79
2023/01/30 01:41:24;;;;;;;20.58;12.95;;;2.10;1.00;;;;;;6346438;22;20942;-77
2023/01/30 01:44:04;;;;;;;22.83;14.45;;;2.00;1.00;;;;;;6346383;22;20753;-76
2023/01/30 01:46:34;;;;;;;23.88;14.05;;;2.10;1.00;;;;;;6344183;22;20256;-79
2023/01/30 01:49:07;;;;;;;23.25;13.48;;;2.00;1.00;;;;;;6345147;22;21050;-77
2023/01/30 01:51:38;;;;;;;22.83;13.57;;;2.00;1.00;;;;;;6345230;22;20218;-77
2023/01/30 01:54:09;;;;;;;21.67;13.50;;;2.10;1.00;;;;;;6343864;22;20207;-76
2023/01/30 01:56:40;;;;;;;22.27;13.55;;;2.10;1.00;;;;;;6346901;22;20242;-77
2023/01/30 01:59:14;;;;;;;24.90;14.07;;;2.10;1.00;;;;;;6345139;22;20206;-76
2023/01/30 02:01:41;;;;;;;20.63;12.90;;;2.10;1.00;;;;;;6348149;22;20217;-79
2023/01/30 02:04:12;;;;;;;25.85;15.38;;;2.10;1.00;;;;;;6346565;22;20233;-84
2023/01/30 02:06:42;;;;;;;20.55;13.38;;;2.10;1.00;;;;;;6349507;22;20264;-82
2023/01/30 02:09:16;;;;;;;26.80;15.73;;;2.20;1.00;;;;;;6346785;22;20264;-81
2023/01/30 02:11:47;;;;;;;24.45;14.60;;;2.20;1.00;;;;;;6348466;22;20194;-81
2023/01/30 02:14:17;;;;;;;23.50;14.35;;;2.20;1.00;;;;;;6346717;22;20210;-80
2023/01/30 02:16:47;;;;;;;20.63;13.68;;;2.10;1.00;;;;;;6348073;22;20229;-80
2023/01/30 02:19:26;;;;;;;23.27;14.57;;;2.00;1.00;;;;;;6348055;22;20210;-79
2023/01/30 02:22:25;;;;;;;24.58;14.77;;;2.00;1.00;;;;;;6349426;22;20756;-81
2023/01/30 02:25:23;;;;;;;24.88;15.05;;;2.00;1.00;;;;;;6304579;22;21010;-80
2023/01/30 02:28:14;;;;;;;24.50;15.45;;;1.90;1.00;;;;;;6346949;22;20207;-81
2023/01/30 02:31:04;;;;;;;20.75;13.77;;;1.90;1.00;;;;;;6345641;22;20207;-82
2023/01/30 02:33:42;;;;;;;27.30;15.60;;;1.90;1.00;;;;;;6349283;22;20217;-81
2023/01/30 02:36:20;;;;;;;26.48;15.77;;;1.90;1.00;;;;;;6346274;22;20207;-81
2023/01/30 02:38:54;;;;;;;26.35;14.95;;;1.90;1.00;;;;;;6348711;22;20215;-81
2023/01/30 02:41:30;;;;;;;25.70;15.57;;;2.00;1.00;;;;;;6346767;22;20202;-81
2023/01/30 02:44:05;;;;;;;24.10;14.90;;;2.00;1.00;;;;;;6347601;22;20186;-81
2023/01/30 02:46:43;;;;;;;24.23;15.20;;;2.00;1.00;;;;;;6345538;22;20221;-80
2023/01/30 02:49:14;;;;;;;26.75;15.70;;;2.00;1.00;;;;;;6346096;22;20236;-81
2023/01/30 02:51:43;;;;;;;24.33;15.10;;;2.00;1.00;;;;;;6348655;22;20210;-81
2023/01/30 02:54:12;;;;;;;24.77;15.90;;;2.00;1.00;;;;;;6346155;22;20208;-82
2023/01/30 02:56:48;;;;;;;27.50;16.48;;;1.90;1.00;;;;;;6345842;22;20210;-82
2023/01/30 02:59:18;;;;;;;24.27;15.73;;;1.80;1.00;;;;;;6327895;22;20203;-79
2023/01/30 03:02:23;;;;;;;26.77;16.75;;;1.70;1.00;;;;;;6322504;22;20210;-83
2023/01/30 03:05:12;;;;;;;29.15;18.20;;;1.70;1.00;;;;;;6337008;22;20246;-79
2023/01/30 03:07:46;;;;;;;28.08;16.33;;;1.60;1.00;;;;;;6347786;22;20277;-80
2023/01/30 03:10:23;;;;;;;28.73;16.70;;;1.60;1.00;;;;;;6346461;22;20236;-81
2023/01/30 03:12:58;;;;;;;26.70;16.08;;;1.50;1.00;;;;;;6348880;22;20241;-81
2023/01/30 03:15:33;;;;;;;29.30;17.10;;;1.50;1.00;;;;;;6348261;22;20238;-83
2023/01/30 03:18:03;;;;;;;30.75;18.35;;;1.50;1.00;;;;;;6345904;22;20217;-81
2023/01/30 03:20:33;;;;;;;29.15;16.90;;;1.50;1.00;;;;;;6346172;22;20264;-81
2023/01/30 03:23:00;;;;;;;31.98;17.05;;;1.50;1.00;;;;;;6349061;22;20910;-81
2023/01/30 03:25:27;;;;;;;26.98;17.27;;;1.50;1.00;;;;;;6351299;22;20959;-81
2023/01/30 03:27:56;;;;;;;28.85;17.50;;;1.50;1.00;;;;;;6348552;22;20211;-81
2023/01/30 03:30:25;;;;;;;30.08;18.10;;;1.50;1.00;;;;;;6349866;22;20667;-80
2023/01/30 03:32:51;;;;;;;28.42;17.00;;;1.50;1.00;;;;;;6348494;22;20803;-80
2023/01/30 03:35:20;;;;;;;29.23;17.17;;;1.50;1.00;;;;;;6345989;22;20760;-81
2023/01/30 03:37:47;;;;;;;25.13;16.00;;;1.50;1.00;;;;;;6346351;22;20721;-81
2023/01/30 03:40:16;;;;;;;27.33;16.75;;;1.50;1.00;;;;;;6349239;22;20234;-81
2023/01/30 03:42:43;;;;;;;28.23;17.30;;;1.60;1.00;;;;;;6349082;22;21018;-82
2023/01/30 03:45:11;;;;;;;32.30;17.65;;;1.60;1.00;;;;;;6346634;22;20276;-81
2023/01/30 03:47:38;;;;;;;30.88;17.00;;;1.60;1.00;;;;;;6347326;22;20211;-80
2023/01/30 03:50:08;;;;;;;29.65;18.35;;;1.70;1.00;;;;;;6346686;22;20207;-82
2023/01/30 03:52:38;;;;;;;28.45;16.15;;;1.70;1.00;;;;;;6346786;22;21045;-82
2023/01/30 03:55:06;;;;;;;26.33;15.77;;;1.70;1.00;;;;;;6347796;22;20268;-81
2023/01/30 03:57:34;;;;;;;29.20;17.20;;;1.70;1.00;;;;;;6316631;22;20207;-81
2023/01/30 04:00:01;;;;;;;30.10;17.88;;;1.80;1.00;;;;;;6346308;22;20207;-81
2023/01/30 04:02:28;;;;;;;27.55;16.15;;;1.70;1.00;;;;;;6322860;22;20215;-79
2023/01/30 04:04:55;;;;;;;30.83;17.38;;;1.70;1.00;;;;;;6349361;22;20675;-81
2023/01/30 04:07:22;;;;;;;26.77;16.05;;;1.80;1.00;;;;;;6348307;22;20674;-83
2023/01/30 04:09:51;;;;;;;27.73;16.17;;;1.80;1.00;;;;;;6350006;22;20230;-82
2023/01/30 04:12:18;;;;;;;28.35;18.48;;;1.80;1.00;;;;;;6348709;22;20222;-82
2023/01/30 04:14:47;;;;;;;30.48;18.60;;;1.80;1.00;;;;;;6350344;22;20215;-80
2023/01/30 04:17:15;;;;;;;27.75;15.80;;;1.90;1.00;;;;;;6347267;22;20213;-80
2023/01/30 04:19:42;;;;;;;24.80;15.88;;;1.90;1.00;;;;;;6350583;22;20207;-82
2023/01/30 04:22:37;;;;;;;29.02;17.00;;;1.90;1.00;;;;;;6334541;22;20207;-81
2023/01/30 04:25:20;;;;;;;25.90;15.27;;;2.00;1.00;;;;;;6345249;22;20207;-82
2023/01/30 04:27:50;;;;;;;29.63;16.55;;;2.00;1.00;;;;;;6328413;22;20207;-82
2023/01/30 04:30:18;;;;;;;25.13;15.60;;;2.00;1.00;;;;;;6341211;22;20210;-81
2023/01/30 04:32:46;;;;;;;29.63;17.38;;;2.10;1.00;;;;;;6328475;22;20234;-82
2023/01/30 04:35:13;;;;;;;26.67;16.23;;;2.10;1.00;;;;;;6350783;22;20207;-81
2023/01/30 04:37:40;;;;;;;26.60;15.68;;;2.10;1.00;;;;;;6349684;22;20306;-80
2023/01/30 04:40:11;;;;;;;26.02;15.50;;;2.10;1.00;;;;;;6346286;22;20289;-82
2023/01/30 04:42:38;;;;;;;24.95;15.52;;;2.20;1.00;;;;;;6349448;22;20215;-82
2023/01/30 04:45:06;;;;;;;24.48;14.98;;;2.20;1.00;;;;;;6346979;22;20215;-83
2023/01/30 04:47:33;;;;;;;26.92;15.50;;;2.20;1.00;;;;;;6351290;22;20824;-82
2023/01/30 04:50:00;;;;;;;26.95;16.00;;;2.20;1.00;;;;;;6356497;22;20302;-83
2023/01/30 04:52:29;;;;;;;24.98;14.82;;;2.20;1.00;;;;;;6355638;22;20210;-81
2023/01/30 04:54:56;;;;;;;26.92;15.20;;;2.20;1.00;;;;;;6357536;22;20296;-80
2023/01/30 04:57:29;;;;;;;25.35;16.08;;;2.30;1.00;;;;;;6353728;22;20222;-82
2023/01/30 04:59:56;;;;;;;26.42;15.70;;;2.30;1.00;;;;;;6354780;22;20210;-82
2023/01/30 05:02:28;;;;;;;24.83;15.95;;;2.30;1.00;;;;;;6353074;22;20234;-82
2023/01/30 05:04:55;;;;;;;28.05;16.10;;;2.30;1.00;;;;;;6346247;22;20210;-83
2023/01/30 05:07:30;;;;;;;26.73;15.65;;;2.30;1.00;;;;;;6348803;22;20211;-81
2023/01/30 05:09:57;;;;;;;25.60;14.90;;;2.40;1.00;;;;;;6348924;22;20205;-83
2023/01/30 05:12:33;;;;;;;29.25;16.05;;;2.40;1.00;;;;;;6348875;22;20207;-82
2023/01/30 05:15:01;;;;;;;27.10;17.17;;;2.30;1.00;;;;;;6324131;22;20215;-82
2023/01/30 05:17:31;;;;;;;27.02;16.58;;;2.30;1.00;;;;;;6349637;22;20210;-82
2023/01/30 05:19:58;;;;;;;27.83;16.52;;;2.30;1.00;;;;;;6350109;22;20206;-81
2023/01/30 05:22:41;;;;;;;;;;;;;;;;;;;;;
2023/01/30 05:25:21;;;;;;;;;;;;;;;;;;;;;
2023/01/30 05:27:49;;;;;;;28.10;15.77;;;2.30;1.00;;;;;;6284739;22;40782;-82
2023/01/30 05:30:24;;;;;;;25.55;15.23;;;2.30;1.00;;;;;;6313632;22;20190;-81
2023/01/30 05:32:52;;;;;;;28.13;16.35;;;2.30;1.00;;;;;;6328420;22;20217;-79
2023/01/30 05:35:21;;;;;;;27.92;17.70;;;2.20;1.00;;;;;;6325312;22;20221;-77
2023/01/30 05:37:51;;;;;;;26.33;15.45;;;2.20;1.00;;;;;;6311267;22;20279;-81
2023/01/30 05:40:20;;;;;;;27.83;15.35;;;2.20;1.00;;;;;;6302690;22;20250;-76
2023/01/30 05:42:48;;;;;;;29.45;17.60;;;2.20;1.00;;;;;;6305702;22;20217;-79
2023/01/30 05:45:20;;;;;;;29.35;16.67;;;2.20;1.00;;;;;;6279282;22;20218;-77
2023/01/30 05:47:52;;;;;;;31.30;15.73;;;2.20;1.00;;;;;;6323369;22;20233;-78
2023/01/30 05:50:21;;;;;;;29.23;16.60;;;2.20;1.00;;;;;;6281288;22;20271;-78
2023/01/30 05:52:49;;;;;;;30.05;18.15;;;2.20;1.00;;;;;;6346805;22;20214;-77
2023/01/30 05:55:21;;;;;;;25.48;15.73;;;2.20;1.00;;;;;;6312413;22;20215;-77
2023/01/30 05:57:50;;;;;;;29.08;17.08;;;2.20;1.00;;;;;;6312573;22;21065;-76
2023/01/30 06:00:19;;;;;;;30.65;18.80;;;2.10;1.00;;;;;;6321596;22;20207;-79
2023/01/30 06:02:46;;;;;;;26.30;16.80;;;2.10;1.00;;;;;;6309464;22;20261;-82
2023/01/30 06:05:14;;;;;;;29.60;17.02;;;2.10;1.00;;;;;;6325087;22;20246;-79
2023/01/30 06:07:43;;;;;;;31.67;17.17;;;2.10;1.00;;;;;;6306109;22;20199;-78
2023/01/30 06:10:11;;;;;;;28.00;17.10;;;2.10;1.00;;;;;;6345666;22;20211;-77
2023/01/30 06:12:39;;;;;;;28.08;15.60;;;2.10;1.00;;;;;;6341275;22;20211;-78
2023/01/30 06:15:08;;;;;;;29.92;18.60;;;2.20;1.00;;;;;;6285151;22;20216;-78
2023/01/30 06:17:41;;;;;;;29.45;16.83;;;2.20;1.00;;;;;;6341116;22;20955;-84
2023/01/30 06:20:11;;;;;;;31.25;17.20;;;2.30;1.00;;;;;;6326444;22;20260;-78
2023/01/30 06:22:43;;;;;;;28.70;17.80;;;2.20;1.00;;;;;;6307697;22;20218;-78
2023/01/30 06:25:10;;;;;;;25.75;15.75;;;2.30;1.00;;;;;;6269956;22;20769;-81
2023/01/30 06:27:42;;;;;;;31.20;18.52;;;2.30;1.00;;;;;;6280260;22;20207;-79
2023/01/30 06:30:22;;;;;;;30.17;16.83;;;2.40;1.00;;;;;;6289414;22;20273;-82
2023/01/30 06:33:09;;;;;;;32.78;19.23;;;2.40;1.00;;;;;;6277755;22;20206;-80
2023/01/30 06:35:40;;;;;;;27.75;16.40;;;2.40;1.00;;;;;;6321153;22;20219;-77
2023/01/30 06:38:10;;;;;;;30.90;17.63;;;2.50;1.00;;;;;;6296796;22;20211;-80
2023/01/30 06:40:46;;;;;;;30.65;17.75;;;2.50;1.00;;;;;;6291400;22;20685;-78
2023/01/30 06:43:21;;;;;;;28.13;16.92;;;2.60;1.00;;;;;;6258578;22;21060;-81
2023/01/30 06:45:49;;;;;;;31.20;16.42;;;2.70;1.00;;;;;;6290172;22;21304;-79
2023/01/30 06:48:22;;;;;;;29.25;17.42;;;2.70;1.00;;;;;;6321828;22;20686;-80
2023/01/30 06:51:01;;;;;;;31.40;16.70;;;2.80;1.00;;;;;;6290610;22;20214;-83
2023/01/30 06:53:30;;;;;;;27.85;16.35;;;2.90;1.00;;;;;;6303399;22;20206;-79
2023/01/30 06:56:03;;;;;;;28.27;15.23;;;2.90;1.00;;;;;;6301689;22;20215;-79
2023/01/30 06:58:32;;;;;;;32.35;16.70;;;2.90;1.00;;;;;;6293346;22;20211;-79
2023/01/30 07:01:06;;;;;;;25.90;15.77;;;2.90;1.00;;;;;;6267620;22;20228;-79
2023/01/30 07:03:39;;;;;;;28.58;15.00;;;3.00;1.00;;;;;;6292033;22;20218;-79
2023/01/30 07:06:12;;;;;;;27.33;16.02;;;3.00;1.00;;;;;;6264477;22;20212;-81
2023/01/30 07:08:43;;;;;;;27.38;14.43;;;3.10;1.00;;;;;;6314594;22;20215;-83
2023/01/30 07:11:11;;;;;;;31.65;15.38;;;3.10;1.00;;;;;;6310379;22;20282;-80
2023/01/30 07:13:50;;;;;;;25.48;14.90;;;3.20;1.00;;;;;;6311137;22;20208;-80
2023/01/30 07:16:27;;;;;;;22.58;13.20;;;3.20;1.00;;;;;;6312297;22;20230;-80
2023/01/30 07:19:21;;;;;;;25.90;13.85;;;3.30;1.00;;;;;;6295631;22;20295;-80
2023/01/30 07:21:50;;;;;;;22.95;12.05;;;3.40;1.00;;;;;;6197748;22;20281;-80
2023/01/30 07:24:17;;;;;;;23.60;12.73;;;3.40;1.00;;;;;;6356511;22;21122;-82
2023/01/30 07:26:49;;;;;;;22.75;12.10;;;3.50;1.00;;;;;;6357855;22;20214;-83
2023/01/30 07:29:18;;;;;;;21.45;12.73;;;3.50;1.00;;;;;;6357068;22;20260;-83
2023/01/30 07:31:56;;;;;;;20.23;11.18;;;3.60;1.00;;;;;;6344627;22;20199;-82
2023/01/30 07:34:32;;;;;;;23.15;12.05;;;3.60;1.00;;;;;;6322444;22;20239;-83
2023/01/30 07:37:01;;;;;;;20.20;12.27;;;3.70;1.00;;;;;;6320461;22;20318;-82
2023/01/30 07:39:31;;;;;;;20.67;12.43;;;3.70;1.00;;;;;;6331511;22;20217;-81
2023/01/30 07:42:03;;;;;;;19.67;11.55;;;3.70;1.00;;;;;;6354108;22;20683;-82
2023/01/30 07:44:30;;;;;;;20.55;12.43;;;3.80;1.00;;;;;;6295887;22;20236;-83
2023/01/30 07:47:01;;;;;;;20.55;11.63;;;3.80;1.00;;;;;;6351517;22;20222;-81
2023/01/30 07:49:32;;;;;;;19.30;11.10;;;3.90;1.00;;;;;;6351682;22;20213;-83
2023/01/30 07:52:00;;;;;;;22.25;10.48;;;4.00;1.00;;;;;;6326241;22;20206;-80
2023/01/30 07:54:31;;;;;;;19.05;10.32;;;4.00;1.00;;;;;;6322532;22;20203;-80
2023/01/30 07:57:09;;;;;;;19.00;10.10;;;4.10;1.00;;;;;;6349796;22;20197;-79
2023/01/30 07:59:37;;;;;;;17.45;9.13;;;4.10;1.00;;;;;;6311774;22;20190;-80
2023/01/30 08:02:15;;;;;;;17.23;8.73;;;4.10;1.00;;;;;;6314908;22;20216;-79
2023/01/30 08:04:53;;;;;;;;;;;;;;;;;;;;;
2023/01/30 08:07:51;;;;;;;15.13;8.05;;;4.20;1.00;;;;;;6259373;22;41231;-80
2023/01/30 08:10:21;;;;;;;18.20;8.07;;;4.30;1.00;;;;;;6248952;22;21307;-78
2023/01/30 08:13:13;;;;;;;15.98;9.77;;;4.30;1.00;;;;;;6261406;22;20228;-80
2023/01/30 08:19:23;;;;;;;15.70;7.25;;;4.40;1.00;;;;;;6241357;22;20642;-79
2023/01/30 08:22:08;;;;;;;15.63;8.00;;;4.50;1.00;;;;;;6310243;22;20230;-81
2023/01/30 08:24:43;;;;;;;14.40;7.60;;;4.50;1.00;;;;;;6307318;22;20275;-81
2023/01/30 08:27:23;;;;;;;13.27;7.45;;;4.50;1.00;;;;;;6276909;22;20233;-81
2023/01/30 08:30:07;;;;;;;15.32;7.28;;;4.60;1.00;;;;;;6291940;22;20215;-79
2023/01/30 08:32:42;;;;;;;14.07;6.43;;;4.60;1.00;;;;;;6314081;22;20234;-81
2023/01/30 08:35:27;;;;;;;13.45;7.38;;;4.60;1.00;;;;;;6315674;22;20301;-80
2023/01/30 08:38:05;;;;;;;14.93;7.60;;;4.70;1.00;;;;;;6291223;22;20226;-79
2023/01/30 08:41:06;;;;;;;14.52;6.90;;;4.80;1.00;;;;;;6345602;22;20203;-80
2023/01/30 08:43:40;;;;;;;13.13;6.25;;;4.80;1.00;;;;;;6295354;22;20199;-80
2023/01/30 08:46:21;;;;;;;;;;;;;;;;;;;;;
2023/01/30 08:49:42;;;;;;;15.75;7.50;;;4.80;1.00;;;;;;6252942;22;38995;-82
2023/01/30 08:52:21;;;;;;;12.75;6.45;;;4.80;1.00;;;;;;6277473;22;20215;-81
2023/01/30 08:57:43;;;;;;;11.95;6.10;;;4.80;1.00;;;;;;6254827;22;20210;-80
2023/01/30 09:00:12;;;;;;;13.48;5.45;;;4.80;1.00;;;;;;6287804;22;20209;-81
2023/01/30 09:02:42;;;;;;;12.68;6.22;;;4.70;1.00;;;;;;6319255;22;20214;-81
2023/01/30 09:05:12;;;;;;;13.45;5.30;;;4.80;1.00;;;;;;6291655;22;20195;-82
2023/01/30 09:08:12;;;;;;;;;;;;;;;;;;;;;
2023/01/30 09:10:50;;;;;;;11.50;4.75;;;4.90;1.00;;;;;;6299420;22;49448;-82
2023/01/30 09:13:42;;;;;;;13.18;5.72;;;4.90;1.00;;;;;;6268139;22;20390;-82
2023/01/30 09:16:10;;;;;;;13.38;5.25;;;5.00;1.00;;;;;;6298241;22;20210;-84
2023/01/30 09:18:43;;;;;;;12.15;5.45;;;5.10;1.00;;;;;;6305978;22;20210;-83
2023/01/30 09:21:30;;;;;;;12.82;4.72;;;5.10;1.00;;;;;;6292742;22;20211;-83
2023/01/30 09:24:32;;;;;;;17.85;5.80;;;5.10;1.00;;;;;;6351427;22;20238;-81
2023/01/30 09:27:32;;;;;;;11.20;4.72;;;5.00;1.00;;;;;;6261226;22;20654;-84
2023/01/30 09:30:21;;;;;;;9.60;4.20;;;5.00;1.00;;;;;;6268201;22;20195;-83
2023/01/30 09:32:52;;;;;;;10.60;4.95;;;5.10;1.00;;;;;;6292946;22;20211;-81
2023/01/30 09:35:31;;;;;;;11.35;4.50;;;5.10;1.00;;;;;;6269840;22;20203;-82
2023/01/30 09:38:03;;;;;;;11.98;4.43;;;5.10;1.00;;;;;;6319885;22;20682;-82
2023/01/30 09:40:32;;;;;;;9.85;4.05;;;5.20;1.00;;;;;;6234977;22;20208;-82
2023/01/30 09:43:42;;;;;;;10.05;3.70;;;5.20;1.00;;;;;;6284252;22;20195;-82
2023/01/30 09:46:22;;;;;;;11.98;4.13;;;5.30;1.00;;;;;;6288523;22;20672;-81
2023/01/30 09:49:00;;;;;;;15.25;6.45;;;5.30;1.00;;;;;;6298563;22;20309;-83
2023/01/30 09:51:46;;;;;;;12.77;4.57;;;5.40;1.00;;;;;;6328333;22;20574;-82
2023/01/30 09:54:25;;;;;;;10.95;4.50;;;5.40;1.00;;;;;;6276921;22;20264;-82
2023/01/30 09:57:08;;;;;;;13.18;3.97;;;5.40;1.00;;;;;;6291743;22;20214;-83
2023/01/30 09:59:52;;;;;;;10.63;3.20;;;5.40;1.00;;;;;;6308402;22;20240;-83
2023/01/30 10:02:40;;;;;;;10.43;3.50;;;5.50;1.00;;;;;;6288896;22;20220;-83
2023/01/30 10:05:10;;;;;;;13.35;3.53;;;5.60;1.00;;;;;;6280991;22;20204;-83
2023/01/30 10:08:07;;;;;;;13.18;3.10;;;5.60;1.00;;;;;;6290603;22;20222;-83
2023/01/30 10:10:51;;;;;;;11.27;2.90;;;5.60;1.00;;;;;;6328485;22;20845;-83
2023/01/30 10:14:00;;;;;;;10.55;3.45;;;5.50;1.00;;;;;;6270291;22;20676;-84
2023/01/30 10:16:44;;;;;;;10.55;2.90;;;5.50;1.00;;;;;;6290361;22;20210;-83
2023/01/30 10:19:48;;;;;;;12.90;2.75;;;5.60;1.00;;;;;;6273536;22;20196;-83
2023/01/30 10:22:40;;;;;;;13.15;2.65;;;5.70;1.00;;;;;;6272399;22;20196;-83
2023/01/30 10:25:23;;;;;;;14.63;2.90;;;5.80;1.00;;;;;;6288457;22;20307;-83
2023/01/30 10:28:01;;;;;;;12.13;1.95;;;5.90;1.00;;;;;;6299415;22;20256;-82
2023/01/30 10:30:32;;;;;;;10.93;2.67;;;6.00;1.00;;;;;;6302106;22;20250;-82
2023/01/30 10:33:21;;;;;;;11.05;2.35;;;6.00;1.00;;;;;;6280700;22;20286;-81
2023/01/30 10:36:06;;;;;;;10.48;2.60;;;6.20;1.00;;;;;;6299877;22;20227;-83
2023/01/30 10:38:46;;;;;;;9.50;2.40;;;6.20;1.00;;;;;;6275398;22;20212;-83
2023/01/30 10:41:25;;;;;;;11.90;3.05;;;6.30;1.00;;;;;;6272775;22;20212;-83
2023/01/30 10:44:05;;;;;;;15.98;3.55;;;6.30;1.00;;;;;;6288431;22;20208;-82
2023/01/30 10:46:51;;;;;;;13.02;2.45;;;6.50;1.00;;;;;;6327367;22;20203;-83
2023/01/30 10:49:29;;;;;;;9.98;2.40;;;6.50;1.00;;;;;;6304099;22;21085;-83
2023/01/30 10:52:06;;;;;;;12.77;2.42;;;6.40;1.00;;;;;;6293070;22;20226;-82
2023/01/30 10:54:45;;;;;;;9.95;2.38;;;6.40;1.00;;;;;;6301697;22;20264;-83
2023/01/30 10:57:27;;;;;;;12.40;3.25;;;6.50;1.00;;;;;;6273846;22;21067;-82
2023/01/30 11:00:19;;;;;;;14.13;3.00;;;6.40;1.00;;;;;;6293285;22;20790;-82
2023/01/30 11:03:01;;;;;;;12.02;3.40;;;6.40;1.00;;;;;;6298265;22;20196;-82
2023/01/30 11:05:43;;;;;;;10.98;3.03;;;6.30;1.00;;;;;;6300221;22;20715;-82
2023/01/30 11:08:23;;;;;;;20.35;3.60;;;6.30;1.00;;;;;;6270163;22;20215;-82
2023/01/30 11:11:09;;;;;;;12.35;3.25;;;6.30;1.00;;;;;;6289384;22;20273;-83
2023/01/30 11:13:43;;;;;;;13.48;3.00;;;6.30;1.00;;;;;;6300093;22;20195;-85
2023/01/30 11:16:20;;;;;;;13.07;3.20;;;6.40;1.00;;;;;;6273154;22;20197;-83
2023/01/30 11:21:53;;;;;;;15.63;3.00;;;6.40;1.00;;;;;;6300964;22;20232;-84
2023/01/30 11:24:29;;;;;;;13.43;3.00;;;6.40;1.00;;;;;;6284809;22;20288;-84
2023/01/30 11:27:28;;;;;;;16.85;3.22;;;6.40;1.00;;;;;;6288967;22;20951;-83
2023/01/30 11:30:22;;;;;;;14.05;3.42;;;6.50;1.00;;;;;;6295229;22;20212;-84
2023/01/30 11:36:10;;;;;;;15.13;3.28;;;7.40;1.00;;;;;;6315067;22;20921;-84
2023/01/30 11:39:03;;;;;;;15.98;3.92;;;7.40;1.00;;;;;;6301949;22;20291;-83
2023/01/30 11:42:03;;;;;;;13.43;3.47;;;7.20;1.00;;;;;;6296395;22;20250;-84
2023/01/30 11:44:41;;;;;;;14.07;3.03;;;7.10;1.00;;;;;;6315003;22;20195;-83
2023/01/30 11:47:26;;;;;;;18.58;5.03;;;7.00;1.00;;;;;;6280338;22;20186;-84
2023/01/30 11:50:31;;;;;;;14.00;3.75;;;7.00;1.00;;;;;;6291861;22;20694;-83
2023/01/30 11:53:24;;;;;;;16.90;4.78;;;7.00;1.00;;;;;;6290271;22;20215;-83
2023/01/30 11:56:10;;;;;;;18.42;4.18;;;6.90;1.00;;;;;;6304070;22;20204;-84
2023/01/30 11:58:48;;;;;;;13.38;3.70;;;6.90;1.00;;;;;;6299549;22;20211;-82
2023/01/30 12:01:26;;;;;;;16.38;3.53;;;6.80;1.00;;;;;;6272654;22;20207;-85
2023/01/30 12:07:04;;;;;;;9.90;2.53;;;6.30;1.00;;;;;;6292659;22;20213;-83
2023/01/30 12:09:51;;;;;;;12.45;2.50;;;5.90;1.00;;;;;;6285916;22;20989;-83
2023/01/30 12:12:50;;;;;;;9.30;2.22;;;5.60;1.00;;;;;;6297299;22;20272;-82
2023/01/30 12:15:31;;;;;;;10.23;2.10;;;5.40;1.00;;;;;;6275109;22;20220;-84
2023/01/30 12:18:20;;;;;;;12.95;2.33;;;5.30;1.00;;;;;;6289883;22;20203;-83
2023/01/30 12:23:46;;;;;;;10.15;2.60;;;5.00;1.00;;;;;;6273322;22;20293;-82
2023/01/30 12:26:30;;;;;;;16.50;3.60;;;5.00;1.00;;;;;;6271692;22;20203;-83
2023/01/30 12:29:51;;;;;;;16.13;2.95;;;5.50;1.00;;;;;;6294294;22;20264;-83
2023/01/30 12:33:22;;;;;;;17.13;2.67;;;7.00;1.00;;;;;;6273908;22;20207;-83
2023/01/30 12:36:06;;;;;;;12.27;2.88;;;8.50;1.00;;;;;;6188115;23;20351;-83
2023/01/30 12:42:29;;;;;;;11.07;2.25;;;8.50;1.00;;;;;;6106020;23;20223;-82
2023/01/30 12:45:26;;;;;;;13.38;3.35;;;9.00;1.00;;;;;;6162609;23;20283;-85
2023/01/30 12:51:51;;;;;;;12.45;3.30;;;8.20;1.00;;;;;;6177114;22;20217;-85
2023/01/30 12:54:49;;;;;;;14.93;3.90;;;7.80;1.00;;;;;;6227563;22;20211;-84
2023/01/30 12:58:04;;;;;;;;;;;;;;;;;;;;;
2023/01/30 13:01:11;;;;;;;16.37;3.73;;;11.10;1.00;;;;;;6191207;22;50827;-86
2023/01/30 13:04:14;;;;;;;;;;;;;;;;;;;;;
2023/01/30 13:07:11;;;;;;;12.03;3.63;;;12.20;1.00;;;;;;6293428;22;50004;-84
2023/01/30 13:10:04;;;;;;;14.00;3.33;;;11.00;1.00;;;;;;6298857;22;20422;-84
2023/01/30 13:12:45;;;;;;;10.87;2.83;;;10.10;1.00;;;;;;6275595;22;20493;-83
2023/01/30 13:15:32;;;;;;;10.20;2.60;;;9.20;1.00;;;;;;6263758;22;20465;-83
2023/01/30 13:18:10;;;;;;;12.00;3.50;;;8.70;1.00;;;;;;6276338;22;20418;-82
2023/01/30 13:21:00;;;;;;;12.85;3.25;;;8.30;1.00;;;;;;6301250;22;20419;-84
2023/01/30 13:23:41;;;;;;;17.02;3.50;;;7.80;1.00;;;;;;6312871;22;20201;-83
2023/01/30 13:26:23;;;;;;;14.15;3.97;;;7.50;1.00;;;;;;6277776;22;20271;-83
2023/01/30 13:28:55;;;;;;;14.95;3.15;;;7.30;1.00;;;;;;6313983;22;20209;-84
2023/01/30 13:31:25;;;;;;;9.48;2.97;;;7.30;1.00;;;;;;6332959;22;20674;-84
2023/01/30 13:34:05;;;;;;;9.68;2.50;;;7.20;1.00;;;;;;6315799;22;20389;-85
2023/01/30 13:36:41;;;;;;;13.10;3.30;;;7.30;1.00;;;;;;6357574;22;20256;-83
2023/01/30 13:39:23;;;;;;;14.48;2.88;;;7.30;1.00;;;;;;6276249;22;20227;-82
2023/01/30 13:42:00;;;;;;;14.35;3.15;;;7.30;1.00;;;;;;6288626;22;20213;-83
2023/01/30 13:44:31;;;;;;;10.75;2.72;;;7.30;1.00;;;;;;6283031;22;20212;-85
2023/01/30 13:47:22;;;;;;;11.25;2.20;;;7.20;1.00;;;;;;6294252;22;20208;-83
2023/01/30 13:50:11;;;;;;;10.82;3.00;;;7.10;1.00;;;;;;6303549;22;20212;-84
2023/01/30 13:52:50;;;;;;;11.77;2.67;;;7.00;1.00;;;;;;6326650;22;20214;-83
2023/01/30 13:55:29;;;;;;;10.30;2.92;;;6.70;1.00;;;;;;6311790;22;20306;-83
2023/01/30 13:58:24;;;;;;;;;;;;;;;;;;;;;
2023/01/30 14:01:01;;;;;;;11.35;2.80;;;6.10;1.00;;;;;;6293683;22;50510;-84
2023/01/30 14:03:31;;;;;;;12.05;2.78;;;5.80;1.00;;;;;;6280098;22;20267;-84
2023/01/30 14:06:40;;;;;;;15.05;3.13;;;5.60;1.00;;;;;;6307870;22;20211;-84
2023/01/30 14:09:39;;;;;;;12.02;2.47;;;5.40;1.00;;;;;;6276644;22;20251;-84
2023/01/30 14:12:19;;;;;;;12.52;3.13;;;5.30;1.00;;;;;;6264510;22;20235;-80
2023/01/30 14:15:22;;;;;;;14.00;4.43;;;5.20;1.00;;;;;;6315336;22;20237;-83
2023/01/30 14:18:09;;;;;;;15.93;4.13;;;5.10;1.00;;;;;;6307748;22;20227;-82
2023/01/30 14:20:47;;;;;;;13.07;2.10;;;5.00;1.00;;;;;;6301260;22;20286;-83
2023/01/30 14:23:28;;;;;;;11.40;2.33;;;4.90;1.00;;;;;;6270287;22;20215;-82